createdAt,value
2022-11-02T00:00:51.586Z,45.05
2022-11-02T00:03:33.764Z,45.60
2022-11-02T00:06:02.483Z,44.42
2022-11-02T00:08:30.834Z,43.35
2022-11-02T00:10:59.374Z,43.88
2022-11-02T00:13:27.922Z,45.22
2022-11-02T00:15:56.984Z,42.15
2022-11-02T00:18:25.433Z,43.38
2022-11-02T00:20:56.591Z,44.13
2022-11-02T00:23:25.140Z,43.22
2022-11-02T00:25:55.745Z,43.60
2022-11-02T00:28:24.665Z,43.42
2022-11-02T00:30:53.589Z,42.05
2022-11-02T00:33:21.907Z,42.03
2022-11-02T00:35:50.918Z,41.75
2022-11-02T00:38:19.433Z,43.42
2022-11-02T00:40:48.367Z,44.00
2022-11-02T00:43:17.456Z,43.97
2022-11-02T00:45:46.404Z,44.72
2022-11-02T00:48:14.732Z,41.80
2022-11-02T00:50:43.597Z,40.35
2022-11-02T00:53:12.469Z,41.35
2022-11-02T00:55:47.685Z,42.83
2022-11-02T00:58:16.129Z,42.85
2022-11-02T01:00:45.445Z,40.80
2022-11-02T01:03:13.716Z,41.90
2022-11-02T01:05:42.357Z,41.88
2022-11-02T01:08:10.931Z,40.42
2022-11-02T01:10:42.769Z,39.10
2022-11-02T01:13:14.065Z,39.88
2022-11-02T01:15:43.324Z,40.92
2022-11-02T01:18:11.840Z,39.25
2022-11-02T01:20:40.463Z,37.78
2022-11-02T01:23:08.726Z,39.10
2022-11-02T01:25:37.304Z,39.05
2022-11-02T01:28:06.245Z,37.67
2022-11-02T01:30:35.588Z,39.22
2022-11-02T01:33:06.240Z,38.70
2022-11-02T01:35:37.138Z,39.17
2022-11-02T01:38:05.941Z,39.92
2022-11-02T01:40:37.089Z,38.83
2022-11-02T01:43:22.495Z,37.17
2022-11-02T01:45:55.200Z,38.13
2022-11-02T01:48:32.367Z,39.08
2022-11-02T01:51:04.870Z,36.90
2022-11-02T01:53:36.102Z,36.85
2022-11-02T01:56:05.895Z,35.90
2022-11-02T01:58:35.402Z,36.13
2022-11-02T02:01:04.186Z,36.22
2022-11-02T02:03:35.684Z,35.75
2022-11-02T02:06:28.205Z,34.38
2022-11-02T02:09:02.148Z,35.35
2022-11-02T02:11:34.566Z,35.05
2022-11-02T02:14:14.573Z,34.47
2022-11-02T02:17:29.110Z,34.88
2022-11-02T02:20:38.329Z,34.72
2022-11-02T02:23:41.236Z,35.78
2022-11-02T02:26:51.841Z,34.22
2022-11-02T02:29:59.571Z,33.20
2022-11-02T02:32:50.980Z,33.72
2022-11-02T02:35:38.113Z,32.33
2022-11-02T02:38:36.486Z,33.40
2022-11-02T02:41:31.725Z,33.30
2022-11-02T02:44:02.945Z,33.67
2022-11-02T02:46:40.514Z,33.20
2022-11-02T02:49:16.138Z,32.42
2022-11-02T02:51:47.349Z,33.20
2022-11-02T02:54:23.000Z,31.43
2022-11-02T02:56:58.231Z,32.03
2022-11-02T02:59:41.278Z,32.20
2022-11-02T03:02:37.380Z,31.85
2022-11-02T03:05:25.731Z,32.30
2022-11-02T03:07:56.502Z,32.28
2022-11-02T03:10:34.887Z,32.75
2022-11-02T03:13:16.255Z,30.63
2022-11-02T03:16:01.434Z,31.25
2022-11-02T03:19:05.614Z,30.48
2022-11-02T03:21:49.091Z,30.90
2022-11-02T03:24:26.403Z,31.13
2022-11-02T03:27:16.860Z,32.47
2022-11-02T03:30:09.661Z,31.52
2022-11-02T03:33:04.794Z,34.35
2022-11-02T03:35:39.750Z,35.55
2022-11-02T03:38:16.512Z,38.20
2022-11-02T03:40:49.625Z,39.28
2022-11-02T03:43:21.470Z,38.78
2022-11-02T03:45:58.946Z,36.53
2022-11-02T03:48:39.432Z,36.65
2022-11-02T03:51:14.097Z,33.50
2022-11-02T03:53:50.041Z,32.95
2022-11-02T03:56:30.255Z,32.80
2022-11-02T03:58:59.104Z,33.78
2022-11-02T04:01:29.737Z,32.85
2022-11-02T04:03:58.689Z,33.13
2022-11-02T04:06:27.955Z,31.40
2022-11-02T04:08:56.589Z,33.47
2022-11-02T04:11:45.578Z,32.70
2022-11-02T04:14:34.851Z,33.70
2022-11-02T04:17:26.709Z,34.60
2022-11-02T04:19:56.632Z,32.73
2022-11-02T04:22:44.821Z,31.92
2022-11-02T04:25:19.098Z,31.23
2022-11-02T04:28:08.050Z,32.47
2022-11-02T04:30:40.420Z,31.90
2022-11-02T04:33:27.979Z,31.58
2022-11-02T04:36:05.220Z,31.38
2022-11-02T04:41:40.742Z,32.03
2022-11-02T04:44:32.146Z,31.48
2022-11-02T04:47:07.060Z,30.23
2022-11-02T04:49:37.491Z,30.75
2022-11-02T04:52:10.094Z,31.75
2022-11-02T04:54:43.796Z,31.10
2022-11-02T04:57:12.361Z,28.70
2022-11-02T04:59:41.618Z,29.08
2022-11-02T05:02:10.111Z,28.58
2022-11-02T05:04:39.807Z,29.65
2022-11-02T05:07:11.283Z,28.48
2022-11-02T05:09:42.673Z,27.58
2022-11-02T05:14:41.139Z,26.45
2022-11-02T05:17:09.673Z,27.75
2022-11-02T05:19:40.451Z,24.73
2022-11-02T05:22:08.885Z,26.65
2022-11-02T05:24:37.509Z,26.40
2022-11-02T05:27:06.843Z,25.80
2022-11-02T05:29:41.650Z,28.48
2022-11-02T05:32:10.307Z,24.90
2022-11-02T05:34:40.195Z,26.05
2022-11-02T05:37:10.675Z,24.17
2022-11-02T05:39:39.600Z,24.70
2022-11-02T05:42:07.995Z,25.33
2022-11-02T05:44:38.008Z,23.80
2022-11-02T05:47:06.710Z,24.08
2022-11-02T05:49:35.634Z,23.15
2022-11-02T05:52:04.354Z,31.73
2022-11-02T05:54:32.865Z,21.70
2022-11-02T05:57:02.934Z,21.55
2022-11-02T05:59:31.526Z,22.30
2022-11-02T06:02:00.275Z,23.00
2022-11-02T06:04:28.974Z,23.98
2022-11-02T06:06:57.378Z,23.48
2022-11-02T06:09:29.687Z,24.02
2022-11-02T06:11:58.047Z,23.13
2022-11-02T06:14:26.867Z,24.38
2022-11-02T06:16:55.302Z,19.83
2022-11-02T06:19:23.983Z,18.80
2022-11-02T06:21:52.380Z,20.08
2022-11-02T06:24:21.622Z,21.52
2022-11-02T06:26:50.034Z,19.63
2022-11-02T06:29:19.346Z,20.05
2022-11-02T06:31:51.628Z,19.75
2022-11-02T06:34:20.386Z,21.25
2022-11-02T06:36:49.088Z,20.10
2022-11-02T06:39:17.806Z,20.67
2022-11-02T06:41:46.325Z,20.73
2022-11-02T06:44:15.160Z,20.38
2022-11-02T06:46:43.649Z,19.75
2022-11-02T06:49:13.952Z,21.13
2022-11-02T06:51:42.288Z,19.48
2022-11-02T06:54:10.951Z,19.30
2022-11-02T06:56:39.258Z,18.00
2022-11-02T06:59:08.060Z,18.88
2022-11-02T07:01:37.794Z,18.20
2022-11-02T07:04:08.284Z,18.23
2022-11-02T07:06:36.780Z,17.92
2022-11-02T07:09:05.477Z,19.08
2022-11-02T07:11:33.882Z,19.20
2022-11-02T07:14:02.531Z,20.42
2022-11-02T07:16:31.523Z,19.90
2022-11-02T07:19:00.405Z,18.65
2022-11-02T07:21:29.004Z,19.88
2022-11-02T07:23:57.680Z,20.95
2022-11-02T07:26:27.291Z,20.02
2022-11-02T07:28:59.253Z,20.38
2022-11-02T07:31:28.650Z,20.25
2022-11-02T07:33:57.491Z,18.27
2022-11-02T07:36:25.883Z,18.85
2022-11-02T07:38:55.713Z,19.02
2022-11-02T07:41:24.650Z,19.20
2022-11-02T07:43:53.513Z,20.88
2022-11-02T07:46:48.166Z,20.20
2022-11-02T07:49:21.295Z,19.15
2022-11-02T07:51:50.344Z,17.50
2022-11-02T07:54:19.145Z,16.23
2022-11-02T07:56:47.440Z,17.42
2022-11-02T07:59:16.146Z,17.23
2022-11-02T08:01:44.664Z,16.70
2022-11-02T08:04:13.465Z,16.10
2022-11-02T08:06:41.911Z,15.60
2022-11-02T08:09:11.174Z,16.77
2022-11-02T08:11:59.676Z,15.85
2022-11-02T08:14:28.354Z,15.07
2022-11-02T08:16:56.659Z,15.57
2022-11-02T08:19:25.569Z,15.82
2022-11-02T08:21:56.376Z,15.13
2022-11-02T08:24:25.393Z,15.98
2022-11-02T08:26:54.826Z,15.90
2022-11-02T08:29:27.930Z,15.55
2022-11-02T08:31:56.519Z,16.00
2022-11-02T08:34:25.440Z,15.85
2022-11-02T08:36:53.871Z,16.83
2022-11-02T08:39:23.108Z,17.58
2022-11-02T08:41:52.267Z,17.45
2022-11-02T08:44:21.580Z,18.20
2022-11-02T08:46:49.950Z,18.38
2022-11-02T08:49:18.971Z,17.50
2022-11-02T08:51:47.863Z,18.23
2022-11-02T08:54:16.512Z,18.52
2022-11-02T08:56:45.065Z,18.17
2022-11-02T08:59:14.086Z,17.52
2022-11-02T09:01:42.454Z,17.75
2022-11-02T09:04:11.440Z,18.13
2022-11-02T09:06:42.491Z,17.50
2022-11-02T09:09:11.327Z,17.75
2022-11-02T09:11:39.950Z,16.92
2022-11-02T09:14:09.164Z,16.73
2022-11-02T09:16:41.491Z,15.25
2022-11-02T09:19:10.705Z,15.98
2022-11-02T09:21:39.018Z,16.33
2022-11-02T09:24:08.682Z,16.85
2022-11-02T09:26:37.066Z,17.30
2022-11-02T09:29:05.945Z,16.40
2022-11-02T09:31:35.167Z,15.75
2022-11-02T09:34:03.982Z,14.82
2022-11-02T09:36:32.312Z,15.32
2022-11-02T09:39:01.027Z,15.38
2022-11-02T09:42:00.793Z,15.10
2022-11-02T09:44:43.825Z,15.65
2022-11-02T09:48:10.717Z,15.02
2022-11-02T09:50:04.127Z,15.77
2022-11-02T09:52:38.351Z,15.10
2022-11-02T09:55:22.121Z,15.45
2022-11-02T09:58:01.148Z,15.77
2022-11-02T10:01:01.987Z,15.20
2022-11-02T10:03:51.980Z,13.45
2022-11-02T10:06:23.988Z,14.20
2022-11-02T10:09:04.714Z,14.35
2022-11-02T10:11:49.427Z,14.45
2022-11-02T10:14:39.115Z,14.15
2022-11-02T10:17:22.862Z,14.07
2022-11-02T10:19:57.808Z,13.57
2022-11-02T10:22:33.498Z,13.07
2022-11-02T10:25:06.732Z,14.55
2022-11-02T10:27:39.399Z,14.77
2022-11-02T10:30:18.407Z,14.25
2022-11-02T10:32:54.039Z,13.55
2022-11-02T10:35:57.569Z,11.75
2022-11-02T10:38:47.223Z,13.13
2022-11-02T10:41:19.126Z,13.15
2022-11-02T10:44:12.353Z,13.30
2022-11-02T10:47:16.244Z,12.55
2022-11-02T10:50:08.050Z,13.48
2022-11-02T10:52:43.514Z,13.10
2022-11-02T10:55:21.556Z,12.18
2022-11-02T10:57:53.273Z,12.95
2022-11-02T11:00:37.686Z,12.43
2022-11-02T11:03:13.963Z,12.35
2022-11-02T11:05:51.617Z,11.88
2022-11-02T11:08:39.991Z,11.70
2022-11-02T11:11:27.478Z,11.75
2022-11-02T11:20:07.225Z,11.10
2022-11-02T11:22:40.007Z,11.02
2022-11-02T11:25:28.265Z,10.65
2022-11-02T11:27:59.161Z,10.07
2022-11-02T11:30:59.499Z,10.40
2022-11-02T11:35:51.525Z,10.05
2022-11-02T11:38:26.487Z,9.88
2022-11-02T11:40:59.049Z,9.35
2022-11-02T11:43:34.372Z,9.63
2022-11-02T11:46:07.318Z,8.60
2022-11-02T11:48:40.470Z,9.82
2022-11-02T11:51:45.281Z,8.68
2022-11-02T11:54:31.782Z,9.10
2022-11-02T11:57:25.730Z,8.93
2022-11-02T11:59:57.552Z,10.70
2022-11-02T12:02:29.657Z,10.30
2022-11-02T12:05:21.019Z,8.98
2022-11-02T12:08:10.078Z,9.82
2022-11-02T12:10:49.747Z,9.60
2022-11-02T12:13:18.683Z,9.25
2022-11-02T12:15:53.052Z,9.15
2022-11-02T12:18:45.330Z,9.20
2022-11-02T12:21:41.136Z,8.90
2022-11-02T12:24:34.810Z,8.77
2022-11-02T12:27:24.779Z,9.52
2022-11-02T12:30:04.914Z,7.70
2022-11-02T12:32:54.894Z,8.32
2022-11-02T12:35:59.666Z,7.80
2022-11-02T12:38:53.772Z,7.45
2022-11-02T12:41:40.923Z,7.22
2022-11-02T12:44:27.304Z,6.68
2022-11-02T12:47:06.875Z,5.68
2022-11-02T12:49:38.967Z,5.22
2022-11-02T12:52:39.725Z,5.63
2022-11-02T12:55:18.130Z,4.80
2022-11-02T12:57:48.603Z,4.80
2022-11-02T13:00:22.700Z,5.00
2022-11-02T13:02:58.299Z,4.40
2022-11-02T13:05:33.160Z,4.80
2022-11-02T13:08:23.137Z,4.47
2022-11-02T13:10:55.878Z,4.30
2022-11-02T13:13:42.333Z,4.32
2022-11-02T13:16:12.032Z,3.97
2022-11-02T13:18:48.837Z,3.90
2022-11-02T13:21:23.744Z,3.35
2022-11-02T13:23:57.624Z,3.78
2022-11-02T13:26:33.466Z,3.60
2022-11-02T13:29:19.457Z,4.10
2022-11-02T13:32:00.538Z,3.50
2022-11-02T13:34:38.175Z,3.17
2022-11-02T13:37:33.805Z,3.63
2022-11-02T13:40:08.825Z,3.53
2022-11-02T13:42:47.259Z,3.38
2022-11-02T13:45:34.563Z,3.78
2022-11-02T13:48:36.131Z,3.50
2022-11-02T13:51:17.797Z,2.95
2022-11-02T13:53:59.154Z,3.57
2022-11-02T13:56:30.479Z,3.67
2022-11-02T13:59:09.706Z,3.75
2022-11-02T14:02:04.873Z,3.47
2022-11-02T14:04:55.635Z,3.90
2022-11-02T14:07:32.678Z,4.25
2022-11-02T14:10:21.391Z,4.32
2022-11-02T14:12:50.046Z,4.30
2022-11-02T14:15:18.551Z,4.22
2022-11-02T14:18:02.807Z,4.32
2022-11-02T14:20:49.315Z,4.32
2022-11-02T14:23:36.870Z,4.55
2022-11-02T14:26:30.690Z,4.28
2022-11-02T14:28:59.032Z,4.22
2022-11-02T14:31:40.710Z,3.60
2022-11-02T14:34:33.164Z,3.15
2022-11-02T14:37:09.883Z,3.70
2022-11-02T14:40:08.216Z,3.78
2022-11-02T14:43:13.945Z,4.15
2022-11-02T14:46:09.348Z,4.78
2022-11-02T14:48:51.977Z,3.58
2022-11-02T14:51:27.880Z,3.72
2022-11-02T14:54:00.807Z,4.03
2022-11-02T14:56:53.151Z,4.07
2022-11-02T14:59:40.406Z,3.80
2022-11-02T15:02:20.950Z,3.67
2022-11-02T15:55:54.112Z,4.40
2022-11-02T15:59:05.426Z,5.05
2022-11-02T16:01:35.944Z,4.93
2022-11-02T16:04:30.480Z,4.00
2022-11-02T16:07:15.190Z,6.07
2022-11-02T16:09:52.617Z,6.57
2022-11-02T17:10:35.114Z,9.40
2022-11-02T17:13:22.298Z,7.35
2022-11-02T17:16:17.868Z,8.00
2022-11-02T17:22:31.295Z,4.25
2022-11-02T17:25:23.324Z,4.30
2022-11-02T17:27:56.729Z,5.85
2022-11-02T17:30:31.183Z,6.60
2022-11-02T17:33:25.316Z,5.75
2022-11-02T17:36:03.934Z,5.32
2022-11-02T17:38:32.634Z,3.65
2022-11-02T17:41:02.127Z,5.30
2022-11-02T17:43:30.552Z,5.63
2022-11-02T17:46:03.421Z,4.63
2022-11-02T17:48:32.566Z,4.00
2022-11-02T17:51:01.451Z,5.32
2022-11-02T17:53:29.847Z,4.78
2022-11-02T17:55:58.460Z,5.43
2022-11-02T17:58:26.897Z,4.47
2022-11-02T18:00:55.871Z,4.57
2022-11-02T18:03:31.089Z,5.25
2022-11-02T18:06:00.812Z,5.95
2022-11-02T18:08:29.373Z,6.28
2022-11-02T18:10:58.346Z,6.72
2022-11-02T18:13:26.725Z,6.97
2022-11-02T18:15:55.562Z,6.50
2022-11-02T18:18:26.448Z,5.97
2022-11-02T18:20:55.270Z,5.57
2022-11-02T18:23:28.811Z,5.90
2022-11-02T18:25:59.478Z,7.57
2022-11-02T18:28:27.916Z,4.25
2022-11-02T18:30:56.469Z,4.80
2022-11-02T18:33:24.753Z,4.70
2022-11-02T18:36:01.453Z,5.47
2022-11-02T18:38:29.814Z,5.20
2022-11-02T18:41:04.143Z,5.20
2022-11-02T18:43:32.699Z,5.57
2022-11-02T18:46:01.331Z,6.28
2022-11-02T18:48:29.654Z,5.90
2022-11-02T18:51:04.751Z,6.28
2022-11-02T18:53:33.123Z,6.20
2022-11-02T18:56:09.825Z,6.50
2022-11-02T18:58:38.804Z,6.75
2022-11-02T19:01:13.265Z,7.53
2022-11-02T19:03:41.957Z,8.07
2022-11-02T19:06:32.147Z,7.68
2022-11-02T19:09:18.690Z,7.30
2022-11-02T19:11:56.964Z,7.50
2022-11-02T19:14:28.297Z,7.78
2022-11-02T19:16:57.281Z,8.13
2022-11-02T19:19:26.303Z,8.07
2022-11-02T19:21:55.024Z,7.57
2022-11-02T19:24:29.999Z,7.60
2022-11-02T19:27:25.648Z,8.02
2022-11-02T19:30:18.932Z,7.63
2022-11-02T19:32:47.623Z,8.20
2022-11-02T19:35:16.234Z,8.02
2022-11-02T19:37:49.364Z,7.15
2022-11-02T19:40:43.424Z,8.23
2022-11-02T19:43:41.625Z,8.10
2022-11-02T19:46:18.727Z,8.05
2022-11-02T19:48:48.639Z,8.57
2022-11-02T19:51:42.143Z,10.07
2022-11-02T19:54:12.759Z,7.00
2022-11-02T19:56:41.128Z,6.68
2022-11-02T19:59:11.285Z,6.78
2022-11-02T20:01:42.532Z,7.10
2022-11-02T20:04:12.709Z,5.18
2022-11-02T20:06:43.632Z,5.38
2022-11-02T20:09:19.739Z,6.53
2022-11-02T20:11:48.569Z,7.10
2022-11-02T20:14:18.747Z,7.60
2022-11-02T20:16:58.368Z,7.07
2022-11-02T20:19:33.408Z,6.75
2022-11-02T20:22:03.233Z,8.15
2022-11-02T20:24:34.481Z,5.43
2022-11-02T20:27:04.635Z,6.70
2022-11-02T20:29:33.642Z,7.00
2022-11-02T20:32:02.219Z,5.90
2022-11-02T20:34:31.116Z,5.40
2022-11-02T20:36:59.619Z,6.32
2022-11-02T20:39:28.307Z,7.07
2022-11-02T20:41:57.577Z,6.63
2022-11-02T20:44:26.431Z,6.68
2022-11-02T20:46:54.894Z,5.47
2022-11-02T20:49:48.645Z,5.50
2022-11-02T20:52:12.493Z,5.68
2022-11-02T20:54:41.467Z,4.32
2022-11-02T20:57:09.900Z,4.10
2022-11-02T20:59:38.877Z,4.47
2022-11-02T21:02:09.673Z,4.28
2022-11-02T21:04:39.794Z,3.17
2022-11-02T21:07:08.217Z,3.45
2022-11-02T21:10:02.395Z,3.85
2022-11-02T21:12:50.201Z,4.43
2022-11-02T21:15:19.196Z,3.40
2022-11-02T21:17:47.553Z,5.03
2022-11-02T21:23:06.208Z,3.70
2022-11-02T21:25:36.443Z,8.32
2022-11-02T21:28:06.889Z,8.68
2022-11-02T21:30:35.594Z,10.77
2022-11-02T21:33:04.598Z,7.55
2022-11-02T21:35:33.600Z,5.97
2022-11-02T21:38:05.318Z,4.25
2022-11-02T21:40:36.628Z,3.80
2022-11-02T21:43:05.326Z,4.50
2022-11-02T21:45:37.912Z,4.40
2022-11-02T21:48:06.696Z,3.58
2022-11-02T21:50:35.564Z,4.00
2022-11-02T21:53:06.782Z,4.60
2022-11-02T21:55:37.584Z,4.53
2022-11-02T21:58:12.882Z,4.50
2022-11-02T22:01:06.709Z,4.22
2022-11-02T22:03:35.066Z,3.70
2022-11-02T22:06:05.123Z,4.18
2022-11-02T22:08:39.130Z,4.00
2022-11-02T22:11:19.024Z,5.43
2022-11-02T22:13:49.189Z,4.93
2022-11-02T22:16:27.945Z,4.47
2022-11-02T22:18:58.196Z,4.18
2022-11-02T22:21:28.934Z,4.07
2022-11-02T22:23:58.236Z,4.00
2022-11-02T22:26:29.401Z,4.25
2022-11-02T22:29:01.957Z,3.80
2022-11-02T22:31:35.802Z,3.20
2022-11-02T22:34:06.715Z,3.30
2022-11-02T22:36:36.795Z,3.40
2022-11-02T22:39:07.185Z,3.30
2022-11-02T22:41:42.564Z,7.10
2022-11-02T22:44:18.929Z,4.63
2022-11-02T22:46:49.987Z,3.53
2022-11-02T22:49:20.132Z,3.38
2022-11-02T22:51:50.663Z,3.20
2022-11-02T22:54:20.651Z,2.92
2022-11-02T22:56:49.494Z,2.80
2022-11-02T22:59:17.972Z,2.90
2022-11-02T23:01:46.809Z,2.83
2022-11-02T23:04:15.335Z,2.55
2022-11-02T23:06:44.085Z,2.97
2022-11-02T23:09:37.436Z,2.90
2022-11-02T23:12:06.512Z,2.63
2022-11-02T23:14:34.877Z,2.83
2022-11-02T23:17:03.623Z,2.60
2022-11-02T23:19:33.143Z,2.75
2022-11-02T23:22:25.992Z,3.08
2022-11-02T23:25:11.455Z,3.00
2022-11-02T23:28:04.163Z,3.28
2022-11-02T23:30:55.769Z,2.85
2022-11-02T23:33:29.179Z,2.80
2022-11-02T23:36:13.213Z,2.30
2022-11-02T23:39:04.125Z,2.88
2022-11-02T23:41:34.527Z,2.42
2022-11-02T23:44:12.515Z,2.83
2022-11-02T23:46:42.725Z,2.50
2022-11-02T23:49:12.845Z,2.80
2022-11-02T23:51:59.501Z,3.05
2022-11-02T23:54:47.341Z,3.65
2022-11-02T23:57:16.049Z,3.55
2022-11-02T23:59:44.653Z,3.47
